Time;durP1;ratioP1;P1;durP2;ratioP2;P2;SDS_P1;SDS_P2;PMS_P1;PMS_P2;Temp;Humidity;BMP_temperature;BMP_pressure;BME280_temperature;BME280_humidity;BME280_pressure;Samples;Min_cycle;Max_cycle;Signal;HPM_P1;HPM_P2
2023/12/26 00:00:29;;;;;;;18.73;3.35;;;7.50;99.90;;;;;;5131264;27;20140;-78
2023/12/26 00:02:54;;;;;;;15.32;3.25;;;7.50;99.90;;;;;;5130848;27;20031;-80
2023/12/26 00:05:21;;;;;;;20.23;3.13;;;7.50;99.90;;;;;;5112898;27;20443;-77
2023/12/26 00:07:47;;;;;;;20.88;5.07;;;7.50;99.90;;;;;;5130397;27;20015;-77
2023/12/26 00:10:15;;;;;;;20.45;4.93;;;7.50;99.90;;;;;;5112881;27;20031;-78
2023/12/26 00:12:42;;;;;;;18.60;3.58;;;7.50;99.90;;;;;;5130486;27;20043;-78
2023/12/26 00:15:09;;;;;;;15.98;3.40;;;7.40;99.90;;;;;;5131030;27;20019;-77
2023/12/26 00:17:35;;;;;;;16.70;2.80;;;7.50;99.90;;;;;;5131114;27;20019;-80
2023/12/26 00:20:01;;;;;;;22.65;3.40;;;7.50;99.90;;;;;;5130484;27;20027;-78
2023/12/26 00:22:26;;;;;;;14.80;2.75;;;7.60;99.90;;;;;;5112534;27;20077;-78
2023/12/26 00:24:52;;;;;;;14.38;2.88;;;7.50;99.90;;;;;;5129911;27;20019;-78
2023/12/26 00:27:18;;;;;;;12.45;2.45;;;7.50;99.90;;;;;;5129849;27;20310;-78
2023/12/26 00:29:44;;;;;;;17.10;3.05;;;7.50;99.90;;;;;;5130386;27;20083;-78
2023/12/26 00:32:10;;;;;;;22.25;2.90;;;7.50;99.90;;;;;;5130918;27;20019;-79
2023/12/26 00:34:36;;;;;;;17.92;3.05;;;7.50;99.90;;;;;;5130981;27;20290;-78
2023/12/26 00:37:01;;;;;;;14.80;2.88;;;7.50;99.90;;;;;;5130138;27;20023;-77
2023/12/26 00:39:27;;;;;;;19.95;3.13;;;7.60;99.90;;;;;;5131263;28;20042;-77
2023/12/26 00:41:53;;;;;;;9.60;2.42;;;7.60;99.90;;;;;;5129988;28;20098;-77
2023/12/26 00:44:19;;;;;;;21.70;3.25;;;7.70;99.90;;;;;;5130281;28;20349;-78
2023/12/26 00:46:46;;;;;;;12.75;2.55;;;7.60;99.90;;;;;;5130464;28;20411;-78
2023/12/26 00:49:13;;;;;;;12.52;2.55;;;7.60;99.90;;;;;;5131375;28;20027;-78
2023/12/26 00:51:38;;;;;;;13.45;2.53;;;7.60;99.90;;;;;;5112435;28;20083;-81
2023/12/26 00:54:05;;;;;;;16.95;2.92;;;7.60;99.90;;;;;;5130452;28;20046;-78
2023/12/26 00:56:30;;;;;;;12.98;2.15;;;7.60;99.90;;;;;;5130688;28;20027;-77
2023/12/26 00:58:56;;;;;;;16.38;2.60;;;7.60;99.90;;;;;;5129918;28;20015;-77
2023/12/26 01:01:22;;;;;;;14.93;3.03;;;7.60;99.90;;;;;;5130595;28;20023;-76
2023/12/26 01:03:47;;;;;;;13.35;2.55;;;7.70;99.90;;;;;;5111659;28;20019;-77
2023/12/26 01:06:14;;;;;;;15.93;3.03;;;7.70;99.90;;;;;;5130629;28;20027;-77
2023/12/26 01:08:40;;;;;;;15.00;2.58;;;7.60;99.90;;;;;;5130345;28;20048;-79
2023/12/26 01:11:06;;;;;;;10.77;2.33;;;7.70;99.90;;;;;;5130494;28;20040;-78
2023/12/26 01:13:34;;;;;;;11.27;2.88;;;7.60;99.90;;;;;;5130439;28;20023;-77
2023/12/26 01:16:02;;;;;;;18.35;2.92;;;7.70;99.90;;;;;;5130072;28;20170;-78
2023/12/26 01:18:28;;;;;;;15.70;2.72;;;7.70;99.90;;;;;;5130391;28;20027;-78
2023/12/26 01:20:54;;;;;;;16.73;3.45;;;7.70;99.90;;;;;;5129722;28;20023;-77
2023/12/26 01:23:19;;;;;;;18.27;2.90;;;7.70;99.90;;;;;;5130601;28;20019;-78
2023/12/26 01:25:45;;;;;;;10.32;2.47;;;7.70;99.90;;;;;;5129770;28;20048;-78
2023/12/26 01:28:12;;;;;;;15.75;2.85;;;7.70;99.90;;;;;;5130618;28;20097;-77
2023/12/26 01:30:40;;;;;;;14.32;2.50;;;7.70;99.90;;;;;;5130867;28;20340;-79
2023/12/26 01:33:06;;;;;;;14.13;2.50;;;7.80;99.90;;;;;;5130728;28;20110;-78
2023/12/26 01:35:32;;;;;;;17.63;2.97;;;7.70;99.90;;;;;;5131208;28;20031;-77
2023/12/26 01:37:57;;;;;;;14.95;3.03;;;7.70;99.90;;;;;;5131962;27;20858;-78
2023/12/26 01:40:23;;;;;;;13.75;2.78;;;7.80;99.90;;;;;;5134085;27;20041;-77
2023/12/26 01:42:49;;;;;;;18.17;3.40;;;7.80;99.90;;;;;;5133938;27;20022;-77
2023/12/26 01:45:15;;;;;;;16.63;2.47;;;7.80;99.90;;;;;;5134348;27;20024;-77
2023/12/26 01:47:43;;;;;;;15.55;3.42;;;7.80;99.90;;;;;;5133986;27;20099;-80
2023/12/26 01:50:10;;;;;;;6.95;2.35;;;7.90;99.90;;;;;;5134873;27;20064;-78
2023/12/26 01:52:39;;;;;;;13.25;2.80;;;7.90;99.90;;;;;;5133841;27;20452;-78
2023/12/26 01:55:07;;;;;;;13.80;2.35;;;7.90;99.90;;;;;;5133499;27;20096;-77
2023/12/26 01:57:34;;;;;;;14.38;2.90;;;7.90;99.90;;;;;;5133818;27;20086;-77
2023/12/26 02:00:01;;;;;;;12.18;2.50;;;7.90;99.90;;;;;;5133196;27;20098;-78
2023/12/26 02:02:28;;;;;;;15.43;3.28;;;7.90;99.90;;;;;;5134152;27;20072;-78
2023/12/26 02:04:54;;;;;;;16.98;2.78;;;8.00;99.90;;;;;;5133303;27;20027;-78
2023/12/26 02:07:19;;;;;;;18.30;3.10;;;8.00;99.90;;;;;;5133676;27;20454;-78
2023/12/26 02:09:45;;;;;;;15.80;3.25;;;8.00;99.90;;;;;;5133108;27;20115;-78
2023/12/26 02:12:11;;;;;;;18.40;2.60;;;8.00;99.90;;;;;;5134245;27;20460;-78
2023/12/26 02:14:37;;;;;;;14.63;2.55;;;8.00;99.90;;;;;;5134191;27;20111;-77
2023/12/26 02:17:08;;;;;;;14.57;2.50;;;8.00;99.90;;;;;;5133402;27;20080;-78
2023/12/26 02:19:41;;;;;;;15.63;2.78;;;8.00;99.90;;;;;;5134053;27;20086;-78
2023/12/26 02:22:07;;;;;;;12.35;2.55;;;8.00;99.90;;;;;;5134116;27;20379;-78
2023/12/26 02:24:32;;;;;;;20.02;3.45;;;8.00;99.90;;;;;;5133937;27;20077;-77
2023/12/26 02:26:58;;;;;;;13.15;2.88;;;8.00;99.90;;;;;;5133246;27;20312;-76
2023/12/26 02:29:25;;;;;;;19.25;3.33;;;8.00;99.90;;;;;;5133725;27;20045;-76
2023/12/26 02:31:54;;;;;;;15.23;2.75;;;8.00;99.90;;;;;;5133066;27;20165;-77
2023/12/26 02:34:21;;;;;;;15.27;2.35;;;8.00;99.90;;;;;;5133932;27;20026;-76
2023/12/26 02:36:47;;;;;;;9.70;2.15;;;8.00;99.90;;;;;;5114475;27;20426;-77
2023/12/26 02:39:14;;;;;;;14.85;2.92;;;8.10;99.90;;;;;;5133884;27;20023;-77
2023/12/26 02:41:40;;;;;;;12.82;2.72;;;8.10;99.90;;;;;;5133872;27;20098;-77
2023/12/26 02:44:06;;;;;;;14.07;2.47;;;8.10;99.90;;;;;;5132874;27;20424;-77
2023/12/26 02:46:32;;;;;;;12.93;3.15;;;8.10;99.90;;;;;;5114842;27;20402;-77
2023/12/26 02:48:58;;;;;;;14.48;3.20;;;8.10;99.90;;;;;;5131758;27;20043;-77
2023/12/26 02:51:23;;;;;;;17.67;2.90;;;8.10;99.90;;;;;;5134395;27;20042;-78
2023/12/26 02:53:51;;;;;;;16.33;3.10;;;8.10;99.90;;;;;;5133106;27;20039;-77
2023/12/26 02:56:17;;;;;;;15.27;2.10;;;8.10;99.90;;;;;;5133333;27;20081;-77
2023/12/26 02:58:43;;;;;;;13.00;2.60;;;8.10;99.90;;;;;;5132686;27;20043;-79
2023/12/26 03:01:08;;;;;;;14.73;3.10;;;8.10;99.90;;;;;;5133918;27;20033;-77
2023/12/26 03:03:34;;;;;;;11.32;2.25;;;8.10;99.90;;;;;;5133393;27;20023;-77
2023/12/26 03:06:00;;;;;;;11.18;2.65;;;8.10;99.90;;;;;;5132962;27;20023;-77
2023/12/26 03:08:25;;;;;;;14.63;2.78;;;8.00;99.90;;;;;;5133477;27;20015;-77
2023/12/26 03:10:51;;;;;;;15.85;2.63;;;8.00;99.90;;;;;;5132858;27;20027;-77
2023/12/26 03:13:17;;;;;;;8.75;1.80;;;8.00;99.90;;;;;;5133155;27;20019;-77
2023/12/26 03:15:43;;;;;;;8.35;2.08;;;8.10;99.90;;;;;;5133256;27;20023;-78
2023/12/26 03:18:09;;;;;;;12.55;2.40;;;8.00;99.90;;;;;;5132838;27;20027;-76
2023/12/26 03:20:34;;;;;;;8.23;1.65;;;8.10;99.90;;;;;;5132760;27;20015;-77
2023/12/26 03:23:00;;;;;;;7.05;1.40;;;8.10;99.90;;;;;;5131924;27;20364;-77
2023/12/26 03:25:26;;;;;;;8.82;1.25;;;8.00;99.90;;;;;;5132745;27;20038;-77
2023/12/26 03:27:52;;;;;;;5.10;1.30;;;8.10;99.90;;;;;;5132014;27;20038;-78
2023/12/26 03:30:17;;;;;;;13.77;1.88;;;8.00;99.90;;;;;;5132250;27;20024;-77
2023/12/26 03:32:44;;;;;;;8.27;1.83;;;8.00;99.90;;;;;;5132241;27;20073;-76
2023/12/26 03:35:10;;;;;;;7.32;1.30;;;8.00;99.90;;;;;;5113598;27;20083;-77
2023/12/26 03:37:36;;;;;;;6.82;1.35;;;8.00;99.90;;;;;;5132487;27;20433;-76
2023/12/26 03:40:02;;;;;;;7.53;1.33;;;8.00;99.90;;;;;;5131846;27;20027;-77
2023/12/26 03:42:28;;;;;;;9.50;1.40;;;7.90;99.90;;;;;;5132321;27;20041;-77
2023/12/26 03:44:54;;;;;;;6.13;1.05;;;7.90;99.90;;;;;;5132071;27;20106;-77
2023/12/26 03:47:19;;;;;;;5.45;1.10;;;7.90;99.90;;;;;;5132037;27;20023;-77
2023/12/26 03:49:45;;;;;;;8.50;1.52;;;7.80;99.90;;;;;;5132378;27;20023;-78
2023/12/26 03:52:11;;;;;;;8.30;1.23;;;7.80;99.90;;;;;;5096330;27;20145;-76
2023/12/26 03:54:36;;;;;;;7.28;1.48;;;7.70;99.90;;;;;;5131812;27;20333;-76
2023/12/26 03:57:02;;;;;;;7.90;1.70;;;7.60;99.90;;;;;;5131537;27;20076;-76
2023/12/26 03:59:28;;;;;;;9.57;1.52;;;7.60;99.90;;;;;;5131854;27;20019;-76
2023/12/26 04:01:54;;;;;;;10.77;1.60;;;7.50;99.90;;;;;;5130834;27;20015;-76
2023/12/26 04:04:20;;;;;;;10.15;1.50;;;7.40;99.90;;;;;;5132265;27;20025;-76
2023/12/26 04:06:45;;;;;;;12.25;1.80;;;7.30;99.90;;;;;;5132036;27;20119;-76
2023/12/26 04:09:12;;;;;;;7.60;1.50;;;7.20;99.90;;;;;;5130961;27;20451;-76
2023/12/26 04:11:38;;;;;;;8.45;1.27;;;7.10;99.90;;;;;;5132281;27;20030;-76
2023/12/26 04:14:03;;;;;;;8.65;1.98;;;7.10;99.90;;;;;;5130841;27;20027;-76
2023/12/26 04:16:29;;;;;;;7.30;1.20;;;7.00;99.90;;;;;;5131958;27;20026;-76
2023/12/26 04:18:55;;;;;;;6.57;1.33;;;7.00;99.90;;;;;;5131121;27;20049;-76
2023/12/26 04:21:20;;;;;;;5.10;1.60;;;7.00;99.90;;;;;;5131459;27;20110;-76
2023/12/26 04:23:46;;;;;;;7.63;1.77;;;6.90;99.90;;;;;;5113265;28;20444;-77
2023/12/26 04:26:12;;;;;;;6.45;1.40;;;6.90;99.90;;;;;;5131073;27;20110;-76
2023/12/26 04:28:37;;;;;;;9.43;1.73;;;6.80;99.90;;;;;;5131198;27;20118;-76
2023/12/26 04:31:04;;;;;;;6.75;1.35;;;6.80;99.90;;;;;;5130620;27;20028;-77
2023/12/26 04:33:30;;;;;;;4.30;1.38;;;6.70;99.90;;;;;;5131628;27;20040;-76
2023/12/26 04:35:56;;;;;;;6.85;1.35;;;6.70;99.90;;;;;;5131132;27;20108;-76
2023/12/26 04:38:21;;;;;;;5.75;1.83;;;6.70;99.90;;;;;;5131351;27;20043;-76
2023/12/26 04:40:47;;;;;;;8.73;1.17;;;6.60;99.90;;;;;;5131564;28;20019;-76
2023/12/26 04:43:15;;;;;;;8.43;1.85;;;6.60;99.90;;;;;;5131284;28;20424;-76
2023/12/26 04:45:41;;;;;;;7.80;1.38;;;6.50;99.90;;;;;;5131540;28;20072;-76
2023/12/26 04:48:08;;;;;;;12.50;2.15;;;6.50;99.90;;;;;;5112118;28;20019;-76
2023/12/26 04:50:34;;;;;;;4.63;1.45;;;6.40;99.90;;;;;;5131844;28;20020;-76
2023/12/26 04:53:04;;;;;;;7.22;2.00;;;6.40;99.90;;;;;;5130510;28;20087;-76
2023/12/26 04:55:30;;;;;;;8.50;1.83;;;6.30;99.90;;;;;;5131547;28;20030;-76
2023/12/26 04:57:56;;;;;;;8.50;1.80;;;6.30;99.90;;;;;;5112445;28;20409;-76
2023/12/26 05:00:21;;;;;;;9.30;1.80;;;6.20;99.90;;;;;;5131127;28;20023;-76
2023/12/26 05:02:47;;;;;;;5.93;1.45;;;6.20;99.90;;;;;;5131363;28;20462;-76
2023/12/26 05:05:13;;;;;;;6.68;1.40;;;6.20;99.90;;;;;;5112057;28;20029;-76
2023/12/26 05:07:39;;;;;;;6.93;1.58;;;6.10;99.90;;;;;;5131445;28;20036;-76
2023/12/26 05:10:05;;;;;;;13.38;1.95;;;6.10;99.90;;;;;;5130700;28;20092;-76
2023/12/26 05:12:31;;;;;;;9.05;1.60;;;6.00;99.90;;;;;;5114177;27;20054;-77
2023/12/26 05:14:56;;;;;;;8.80;1.75;;;6.00;99.90;;;;;;5134579;27;20054;-77
2023/12/26 05:17:22;;;;;;;10.45;1.73;;;6.00;99.90;;;;;;5135019;27;20019;-77
2023/12/26 05:19:48;;;;;;;7.53;1.35;;;6.00;99.90;;;;;;5135092;27;20050;-76
2023/12/26 05:22:14;;;;;;;12.93;2.03;;;6.00;99.90;;;;;;5134388;27;20023;-77
2023/12/26 05:24:40;;;;;;;8.77;1.95;;;6.00;99.90;;;;;;5134736;27;20336;-77
2023/12/26 05:27:05;;;;;;;12.07;1.95;;;5.90;99.90;;;;;;5134494;27;20350;-76
2023/12/26 05:29:31;;;;;;;9.25;1.50;;;5.90;99.90;;;;;;5134435;27;20093;-76
2023/12/26 05:31:57;;;;;;;15.85;2.22;;;5.90;99.90;;;;;;5134118;27;20023;-76
2023/12/26 05:34:23;;;;;;;11.32;2.65;;;5.80;99.90;;;;;;5134690;27;20313;-76
2023/12/26 05:36:49;;;;;;;8.50;1.42;;;5.80;99.90;;;;;;5134871;27;20019;-76
2023/12/26 05:39:15;;;;;;;6.53;1.80;;;5.80;99.90;;;;;;5134170;27;20035;-76
2023/12/26 05:41:41;;;;;;;6.95;1.65;;;5.80;99.90;;;;;;5115938;27;20097;-76
2023/12/26 05:44:06;;;;;;;8.65;1.90;;;5.80;99.90;;;;;;5134388;27;20083;-77
2023/12/26 05:46:32;;;;;;;7.90;1.40;;;5.80;99.90;;;;;;5134824;27;20031;-76
2023/12/26 05:48:58;;;;;;;10.02;1.77;;;5.80;99.90;;;;;;5134009;27;20034;-77
2023/12/26 05:51:25;;;;;;;11.00;1.75;;;5.70;99.90;;;;;;5135081;27;20495;-76
2023/12/26 05:53:50;;;;;;;14.30;2.20;;;5.80;99.90;;;;;;5134518;27;20039;-76
2023/12/26 05:56:16;;;;;;;8.93;1.92;;;5.70;99.90;;;;;;5133825;27;20365;-76
2023/12/26 05:58:42;;;;;;;5.40;1.30;;;5.70;99.90;;;;;;5134540;27;20099;-77
2023/12/26 06:01:11;;;;;;;8.38;1.50;;;5.70;99.90;;;;;;5115129;27;20023;-76
2023/12/26 06:03:38;;;;;;;8.13;1.83;;;5.70;99.90;;;;;;5134511;27;20026;-77
2023/12/26 06:06:09;;;;;;;11.85;2.30;;;5.70;99.90;;;;;;5134031;27;20038;-77
2023/12/26 06:08:35;;;;;;;7.60;1.73;;;5.60;99.90;;;;;;5134311;27;20018;-77
2023/12/26 06:11:01;;;;;;;10.43;1.88;;;5.60;99.90;;;;;;5114827;27;20259;-77
2023/12/26 06:13:27;;;;;;;11.95;2.08;;;5.60;99.90;;;;;;5134250;27;20027;-77
2023/12/26 06:15:53;;;;;;;12.82;2.17;;;5.60;99.90;;;;;;5134306;27;20058;-77
2023/12/26 06:18:19;;;;;;;15.50;2.35;;;5.60;99.90;;;;;;5134035;27;20051;-76
2023/12/26 06:20:44;;;;;;;16.10;2.42;;;5.60;99.90;;;;;;5134388;27;20023;-76
2023/12/26 06:23:10;;;;;;;8.68;2.33;;;5.50;99.90;;;;;;5133536;27;20051;-77
2023/12/26 06:25:36;;;;;;;12.95;2.15;;;5.50;99.90;;;;;;5134691;27;20026;-77
2023/12/26 06:28:02;;;;;;;13.18;2.30;;;5.50;99.90;;;;;;5115204;27;20071;-77
2023/12/26 06:30:28;;;;;;;12.32;2.63;;;5.50;99.90;;;;;;5134399;27;20023;-76
2023/12/26 06:32:54;;;;;;;8.60;1.70;;;5.50;99.90;;;;;;5133910;27;20335;-77
2023/12/26 06:35:19;;;;;;;6.47;1.63;;;5.50;99.90;;;;;;5133362;27;20098;-76
2023/12/26 06:37:45;;;;;;;9.07;1.98;;;5.50;99.90;;;;;;5134148;27;20023;-76
2023/12/26 06:40:11;;;;;;;6.80;1.40;;;5.60;99.90;;;;;;5133220;27;20095;-77
2023/12/26 06:42:37;;;;;;;11.07;2.25;;;5.50;99.90;;;;;;5133888;27;20244;-77
2023/12/26 06:45:02;;;;;;;9.75;1.77;;;5.50;99.90;;;;;;5132821;27;20524;-77
2023/12/26 06:47:28;;;;;;;9.85;1.98;;;5.50;99.90;;;;;;5133422;27;20030;-77
2023/12/26 06:49:54;;;;;;;10.30;1.65;;;5.50;99.90;;;;;;5133449;27;20444;-77
2023/12/26 06:52:19;;;;;;;7.18;2.28;;;5.50;99.90;;;;;;5132573;27;20099;-77
2023/12/26 06:54:45;;;;;;;12.27;2.42;;;5.50;99.90;;;;;;5133315;27;20034;-77
2023/12/26 06:57:17;;;;;;;8.45;2.13;;;5.50;99.90;;;;;;5132224;27;20114;-76
2023/12/26 06:59:48;;;;;;;3.85;1.45;;;5.50;99.90;;;;;;5133324;27;20358;-77
2023/12/26 07:02:14;;;;;;;10.45;1.60;;;5.50;99.90;;;;;;5132661;27;20076;-77
2023/12/26 07:04:42;;;;;;;6.10;1.67;;;5.40;99.90;;;;;;5133204;27;20020;-77
2023/12/26 07:07:08;;;;;;;14.00;2.83;;;5.40;99.90;;;;;;5132505;27;20023;-77
2023/12/26 07:09:33;;;;;;;10.05;1.63;;;5.40;99.90;;;;;;5132766;27;20035;-77
2023/12/26 07:11:59;;;;;;;10.63;1.98;;;5.40;99.90;;;;;;5132289;27;20143;-79
2023/12/26 07:14:26;;;;;;;9.20;1.80;;;5.30;99.90;;;;;;5132707;27;20051;-76
2023/12/26 07:16:52;;;;;;;10.55;2.30;;;5.20;99.90;;;;;;5132796;27;20034;-77
2023/12/26 07:19:18;;;;;;;8.35;1.80;;;5.20;99.90;;;;;;5132169;27;20804;-77
2023/12/26 07:21:43;;;;;;;9.35;1.80;;;5.20;99.90;;;;;;5132484;27;20039;-77
2023/12/26 07:24:09;;;;;;;7.25;1.85;;;5.20;99.90;;;;;;5131928;27;20051;-77
2023/12/26 07:26:35;;;;;;;8.18;2.15;;;5.30;99.90;;;;;;5132420;27;20093;-77
2023/12/26 07:29:01;;;;;;;5.85;1.80;;;5.20;99.90;;;;;;5132257;27;20019;-79
2023/12/26 07:31:27;;;;;;;9.82;1.63;;;5.20;99.90;;;;;;5132403;27;20046;-77
2023/12/26 07:33:52;;;;;;;7.60;1.95;;;5.30;99.90;;;;;;5132345;27;20049;-77
2023/12/26 07:36:18;;;;;;;8.43;1.90;;;5.30;99.90;;;;;;5130889;27;20034;-77
2023/12/26 07:38:44;;;;;;;7.75;1.60;;;5.30;99.90;;;;;;5132579;27;20023;-77
2023/12/26 07:41:10;;;;;;;8.00;1.80;;;5.20;99.90;;;;;;5131605;27;20134;-77
2023/12/26 07:43:36;;;;;;;11.85;2.15;;;5.20;99.90;;;;;;5131977;27;20114;-77
2023/12/26 07:46:02;;;;;;;9.55;2.10;;;5.20;99.90;;;;;;5113333;27;20072;-79
2023/12/26 07:48:28;;;;;;;4.70;1.42;;;5.30;99.90;;;;;;5132151;27;20421;-76
2023/12/26 07:50:54;;;;;;;13.25;2.15;;;5.20;99.90;;;;;;5132472;27;20084;-77
2023/12/26 07:53:20;;;;;;;9.30;1.98;;;5.30;99.90;;;;;;5112851;27;20068;-76
2023/12/26 07:55:45;;;;;;;8.73;1.80;;;5.20;99.90;;;;;;5131661;27;20103;-77
2023/12/26 07:58:11;;;;;;;9.65;1.92;;;5.20;99.90;;;;;;5131417;27;20105;-77
2023/12/26 08:00:37;;;;;;;10.63;2.00;;;5.20;99.90;;;;;;5131629;27;20458;-77
2023/12/26 08:03:02;;;;;;;11.38;1.90;;;5.20;99.90;;;;;;5131601;27;20106;-78
2023/12/26 08:05:28;;;;;;;11.95;1.92;;;5.10;99.90;;;;;;5131869;27;20448;-77
2023/12/26 08:07:54;;;;;;;13.85;2.00;;;5.20;99.90;;;;;;5131528;27;20458;-76
2023/12/26 08:10:19;;;;;;;8.23;1.88;;;5.20;99.90;;;;;;5131259;27;20026;-77
2023/12/26 08:12:45;;;;;;;10.27;1.80;;;5.10;99.90;;;;;;5131479;27;20019;-76
2023/12/26 08:15:11;;;;;;;10.48;1.75;;;5.10;99.90;;;;;;5131098;27;20088;-77
2023/12/26 08:17:37;;;;;;;10.02;2.15;;;5.10;99.90;;;;;;5131469;27;20030;-76
2023/12/26 08:20:06;;;;;;;10.48;1.60;;;5.10;99.90;;;;;;5113046;27;20023;-79
2023/12/26 08:22:32;;;;;;;6.93;2.00;;;5.00;99.90;;;;;;5131386;27;20054;-77
2023/12/26 08:24:57;;;;;;;8.52;1.80;;;5.00;99.90;;;;;;5131154;27;20139;-77
2023/12/26 08:27:23;;;;;;;7.28;1.60;;;5.00;99.90;;;;;;5131087;27;20607;-77
2023/12/26 08:29:49;;;;;;;7.05;1.65;;;5.00;99.90;;;;;;5131121;27;20068;-77
2023/12/26 08:32:16;;;;;;;8.07;2.10;;;4.90;99.90;;;;;;5130669;27;20051;-77
2023/12/26 08:34:44;;;;;;;13.70;1.98;;;4.90;99.90;;;;;;5131105;27;20047;-77
2023/12/26 08:37:11;;;;;;;11.23;2.03;;;4.80;99.90;;;;;;5130621;27;20031;-78
2023/12/26 08:39:37;;;;;;;7.95;2.03;;;4.80;99.90;;;;;;5131674;27;20023;-77
2023/12/26 08:42:03;;;;;;;11.40;1.80;;;4.80;99.90;;;;;;5131181;28;20034;-78
2023/12/26 08:44:29;;;;;;;6.45;1.73;;;4.80;99.90;;;;;;5130942;28;20019;-77
2023/12/26 08:46:54;;;;;;;15.18;2.10;;;4.80;99.90;;;;;;5131253;27;20420;-77
2023/12/26 08:49:20;;;;;;;11.30;2.17;;;4.70;99.90;;;;;;5135100;27;20019;-77
2023/12/26 08:51:46;;;;;;;11.75;1.88;;;4.70;99.90;;;;;;5117193;27;20401;-77
2023/12/26 08:54:12;;;;;;;6.30;2.00;;;4.70;99.90;;;;;;5116401;27;20097;-77
2023/12/26 08:56:41;;;;;;;8.13;1.85;;;4.70;99.90;;;;;;5135406;27;20050;-78
2023/12/26 08:59:07;;;;;;;10.00;2.17;;;4.70;99.90;;;;;;5135232;27;20372;-79
2023/12/26 09:01:35;;;;;;;7.28;2.10;;;4.70;99.90;;;;;;5135330;27;20123;-78
2023/12/26 09:04:01;;;;;;;8.80;2.35;;;4.70;99.90;;;;;;5135305;27;20023;-77
2023/12/26 09:06:27;;;;;;;9.45;2.38;;;4.70;99.90;;;;;;5134887;27;20023;-77
2023/12/26 09:08:53;;;;;;;6.78;1.95;;;4.70;99.90;;;;;;5135166;27;20027;-77
2023/12/26 09:11:18;;;;;;;15.93;2.13;;;4.70;99.90;;;;;;5134946;27;20102;-77
2023/12/26 09:13:44;;;;;;;8.60;1.90;;;4.70;99.90;;;;;;5135419;27;20023;-78
2023/12/26 09:16:10;;;;;;;14.15;2.47;;;4.70;99.90;;;;;;5134293;27;20432;-79
2023/12/26 09:18:36;;;;;;;8.60;1.85;;;4.70;99.90;;;;;;5135432;27;20023;-78
2023/12/26 09:21:02;;;;;;;9.95;2.60;;;4.70;99.90;;;;;;5135162;27;20030;-78
2023/12/26 09:23:29;;;;;;;7.90;2.35;;;4.70;99.90;;;;;;5134747;27;20048;-78
2023/12/26 09:25:54;;;;;;;9.30;2.17;;;4.70;99.90;;;;;;5116610;27;20019;-78
2023/12/26 09:28:20;;;;;;;7.07;2.33;;;4.70;99.90;;;;;;5134389;27;20022;-78
2023/12/26 09:30:46;;;;;;;5.65;2.45;;;4.70;99.90;;;;;;5116838;27;20045;-78
2023/12/26 09:33:11;;;;;;;6.22;1.90;;;4.70;99.90;;;;;;5134321;27;20428;-79
2023/12/26 09:35:37;;;;;;;11.35;2.72;;;4.80;99.90;;;;;;5116310;27;20027;-78
2023/12/26 09:38:03;;;;;;;10.90;2.10;;;4.80;99.90;;;;;;5135187;27;20037;-78
2023/12/26 09:40:29;;;;;;;9.48;2.60;;;4.80;99.90;;;;;;5134857;27;20019;-80
2023/12/26 09:43:03;;;;;;;6.00;2.75;;;4.80;99.90;;;;;;5135691;27;20023;-79
2023/12/26 09:45:30;;;;;;;12.40;3.42;;;4.90;99.90;;;;;;5134827;27;20015;-79
2023/12/26 09:47:57;;;;;;;8.23;2.90;;;5.00;99.90;;;;;;5135032;27;20126;-78
2023/12/26 09:50:23;;;;;;;8.40;2.40;;;5.00;99.90;;;;;;5142810;27;20157;-79
2023/12/26 09:52:56;;;;;;;9.95;2.08;;;5.00;99.90;;;;;;5134473;27;20433;-78
2023/12/26 09:55:21;;;;;;;;;;;5.00;99.90;;;;;;5115621;27;20019;-78
2023/12/26 09:57:48;;;;;;;4.13;1.98;;;5.10;99.90;;;;;;5133691;27;19907;-78
2023/12/26 10:00:14;;;;;;;8.70;2.08;;;5.10;99.90;;;;;;5133726;27;20456;-78
2023/12/26 10:02:42;;;;;;;7.20;2.60;;;5.20;99.90;;;;;;5134287;27;20023;-78
2023/12/26 10:05:08;;;;;;;8.68;2.97;;;5.30;99.90;;;;;;5134310;27;20023;-78
2023/12/26 10:07:34;;;;;;;4.55;1.90;;;5.30;99.90;;;;;;5133492;27;20943;-79
2023/12/26 10:10:00;;;;;;;7.60;1.88;;;5.50;99.90;;;;;;5134082;27;20023;-78
2023/12/26 10:12:35;;;;;;;8.35;2.33;;;5.50;99.90;;;;;;5115055;27;20114;-78
2023/12/26 10:15:05;;;;;;;6.38;1.95;;;5.50;99.90;;;;;;5134090;27;20075;-78
2023/12/26 10:17:32;;;;;;;11.18;2.30;;;5.60;99.90;;;;;;5132653;27;20558;-78
2023/12/26 10:19:58;;;;;;;9.05;2.25;;;5.70;99.90;;;;;;5141409;27;20080;-79
2023/12/26 10:22:30;;;;;;;8.60;2.78;;;5.80;99.90;;;;;;5143866;27;20015;-78
2023/12/26 10:24:56;;;;;;;11.55;2.70;;;5.80;99.90;;;;;;5135881;27;20089;-78
2023/12/26 10:27:22;;;;;;;6.50;2.40;;;5.90;99.90;;;;;;5132786;27;20026;-77
2023/12/26 10:29:53;;;;;;;7.53;2.03;;;5.90;99.90;;;;;;5132932;27;20397;-77
2023/12/26 10:32:19;;;;;;;7.00;2.13;;;5.90;99.90;;;;;;5114480;27;20019;-79
2023/12/26 10:34:45;;;;;;;9.77;2.20;;;6.00;99.90;;;;;;5133271;27;20371;-78
2023/12/26 10:37:11;;;;;;;10.32;4.65;;;6.00;99.90;;;;;;5132916;27;20023;-81
2023/12/26 10:39:37;;;;;;;8.63;3.47;;;6.00;99.90;;;;;;5133278;27;20062;-78
2023/12/26 10:42:03;;;;;;;10.05;4.00;;;6.00;99.90;;;;;;5133369;27;20034;-78
2023/12/26 10:44:30;;;;;;;21.35;13.30;;;6.10;99.90;;;;;;5133095;27;20520;-79
2023/12/26 10:46:58;;;;;;;11.23;4.72;;;6.10;99.90;;;;;;5133784;27;20064;-77
2023/12/26 10:49:24;;;;;;;7.10;3.08;;;6.10;99.90;;;;;;5132684;27;20027;-77
2023/12/26 10:51:52;;;;;;;6.60;3.17;;;6.10;99.90;;;;;;5133580;27;20011;-78
2023/12/26 10:54:24;;;;;;;6.40;2.90;;;6.20;99.90;;;;;;5132182;27;20042;-78
2023/12/26 10:56:52;;;;;;;10.98;2.22;;;6.20;99.90;;;;;;5133390;27;20431;-78
2023/12/26 10:59:19;;;;;;;11.98;3.70;;;6.20;99.90;;;;;;5132590;27;20329;-78
2023/12/26 11:01:46;;;;;;;6.05;2.10;;;6.30;99.90;;;;;;5114729;27;20019;-78
2023/12/26 11:04:13;;;;;;;4.78;1.70;;;6.30;99.90;;;;;;5132712;27;20114;-81
2023/12/26 11:06:40;;;;;;;6.57;3.47;;;6.40;99.90;;;;;;5133162;27;20030;-77
2023/12/26 11:09:07;;;;;;;7.22;2.50;;;6.40;99.90;;;;;;5132285;27;20050;-78
2023/12/26 11:11:34;;;;;;;9.32;2.60;;;6.40;99.90;;;;;;5132101;27;20838;-78
2023/12/26 11:14:00;;;;;;;7.65;2.15;;;6.50;99.90;;;;;;5133031;27;20043;-78
2023/12/26 11:16:26;;;;;;;13.55;5.57;;;6.50;99.90;;;;;;5132381;27;20061;-78
2023/12/26 11:18:52;;;;;;;10.65;3.38;;;6.50;99.90;;;;;;5133184;27;20034;-78
2023/12/26 11:21:18;;;;;;;5.60;2.70;;;6.60;99.90;;;;;;5132092;27;20044;-78
2023/12/26 11:23:45;;;;;;;9.57;2.47;;;6.60;99.90;;;;;;5132692;27;20165;-78
2023/12/26 11:26:12;;;;;;;5.68;1.88;;;6.60;99.90;;;;;;5132880;27;20076;-78
2023/12/26 11:28:41;;;;;;;5.13;1.88;;;6.60;99.90;;;;;;5131962;27;20044;-77
2023/12/26 11:31:12;;;;;;;4.95;1.52;;;6.60;99.90;;;;;;5132478;27;20067;-77
2023/12/26 11:33:38;;;;;;;6.95;1.60;;;6.70;99.90;;;;;;5113892;27;20026;-78
2023/12/26 11:36:04;;;;;;;5.10;1.75;;;6.70;99.90;;;;;;5132219;27;20023;-77
2023/12/26 11:38:31;;;;;;;5.55;2.10;;;6.70;99.90;;;;;;5131853;27;20343;-77
2023/12/26 11:40:57;;;;;;;7.22;2.40;;;6.80;99.90;;;;;;5097264;27;20023;-77
2023/12/26 11:43:23;;;;;;;6.47;2.92;;;6.80;99.90;;;;;;5131749;27;20015;-77
2023/12/26 11:45:48;;;;;;;5.55;2.20;;;6.80;99.90;;;;;;5131120;27;20023;-78
2023/12/26 11:48:14;;;;;;;5.95;1.60;;;6.90;99.90;;;;;;5132180;27;20054;-80
2023/12/26 11:50:40;;;;;;;5.28;1.88;;;6.90;99.90;;;;;;5120190;27;20102;-79
2023/12/26 11:53:06;;;;;;;4.93;1.80;;;7.00;99.90;;;;;;5119526;27;20074;-77
2023/12/26 11:55:32;;;;;;;6.60;2.45;;;7.00;99.90;;;;;;5113792;27;20466;-77
2023/12/26 11:57:58;;;;;;;4.47;1.83;;;7.00;99.90;;;;;;5116044;27;20039;-78
2023/12/26 12:00:24;;;;;;;3.47;1.83;;;7.00;99.90;;;;;;5122066;27;20371;-78
2023/12/26 12:02:51;;;;;;;8.88;3.00;;;7.00;99.90;;;;;;5120176;27;20038;-78
2023/12/26 12:05:16;;;;;;;5.35;1.98;;;7.00;99.90;;;;;;5129955;27;20293;-80
2023/12/26 12:08:11;;;;;;;6.28;2.13;;;7.10;99.90;;;;;;5122092;27;20038;-78
2023/12/26 12:10:37;;;;;;;5.43;2.20;;;7.10;99.90;;;;;;5127716;27;20034;-78
2023/12/26 12:13:04;;;;;;;4.05;1.80;;;7.20;99.90;;;;;;5129012;27;20352;-78
2023/12/26 12:15:29;;;;;;;9.35;2.53;;;7.20;99.90;;;;;;5105618;27;20015;-78
2023/12/26 12:17:55;;;;;;;8.60;2.20;;;7.20;99.90;;;;;;5126763;27;20076;-78
2023/12/26 12:20:21;;;;;;;7.40;2.42;;;7.20;99.90;;;;;;5131039;27;20011;-78
2023/12/26 12:22:47;;;;;;;9.85;3.00;;;7.20;99.90;;;;;;5112333;27;20019;-79
2023/12/26 12:25:16;;;;;;;5.55;2.50;;;7.20;99.90;;;;;;5112329;28;20038;-78
2023/12/26 12:27:42;;;;;;;8.30;1.98;;;7.20;99.90;;;;;;5124412;27;20027;-78
2023/12/26 12:30:07;;;;;;;5.57;1.85;;;7.20;99.90;;;;;;5125902;27;20023;-79
2023/12/26 12:32:35;;;;;;;7.88;2.42;;;7.20;99.90;;;;;;5129705;27;20140;-79
2023/12/26 12:35:13;;;;;;;6.30;2.08;;;7.20;99.90;;;;;;5130725;27;20098;-78
2023/12/26 12:37:39;;;;;;;7.32;1.85;;;7.30;99.90;;;;;;5123980;27;20341;-79
2023/12/26 12:40:06;;;;;;;4.45;2.05;;;7.30;99.90;;;;;;5110655;28;20026;-79
2023/12/26 12:42:36;;;;;;;10.32;3.70;;;7.30;99.90;;;;;;5101488;28;20065;-79
2023/12/26 12:45:05;;;;;;;9.57;3.20;;;7.40;99.90;;;;;;5119751;28;20026;-79
2023/12/26 12:47:32;;;;;;;11.25;2.83;;;7.40;99.90;;;;;;5119821;28;20123;-79